createdAt,value
2022-08-19T03:58:26.410Z,99835.19
2022-08-19T04:01:34.738Z,99835.19
2022-08-19T04:04:44.073Z,99829.16
2022-08-19T04:07:46.566Z,99826.19
2022-08-19T04:10:50.063Z,99822.94
2022-08-19T04:13:54.046Z,99837.69
2022-08-19T04:16:57.382Z,99843.88
2022-08-19T04:20:00.613Z,99847.97
2022-08-19T04:23:03.391Z,99855.19
2022-08-19T04:26:05.818Z,99857.88
2022-08-19T04:29:16.690Z,99841.87
2022-08-19T04:32:19.084Z,99841.94
2022-08-19T04:35:24.787Z,99853.53
2022-08-19T04:38:27.469Z,99859.28
2022-08-19T04:41:48.488Z,99865.13
2022-08-19T04:44:51.691Z,99864.28
2022-08-19T04:48:27.318Z,99867.97
2022-08-19T04:51:21.611Z,99861.41
2022-08-19T04:54:38.625Z,99866.22
2022-08-19T04:57:41.643Z,99854.91
2022-08-19T05:00:44.807Z,99852.97
2022-08-19T05:03:47.205Z,99863.87
2022-08-19T05:06:51.555Z,99866.75
2022-08-19T05:09:57.765Z,99864.06
2022-08-19T05:13:01.827Z,99869.34
2022-08-19T05:16:04.475Z,99865.31
2022-08-19T05:19:25.605Z,99870.53
2022-08-19T05:22:33.878Z,99866.63
2022-08-19T05:25:40.829Z,99868.47
2022-08-19T05:28:44.243Z,99872.56
2022-08-19T05:31:52.075Z,99868.16
2022-08-19T05:34:54.842Z,99871.31
2022-08-19T05:37:59.149Z,99870.56
2022-08-19T05:41:01.621Z,99871.19
2022-08-19T05:44:10.214Z,99876.84
2022-08-19T05:47:15.752Z,99870.31
2022-08-19T05:50:18.555Z,99875.38
2022-08-19T05:53:20.892Z,99872.88
2022-08-19T05:56:23.636Z,99875.88
2022-08-19T05:59:26.370Z,99860.41
2022-08-19T06:02:34.276Z,99876.63
2022-08-19T06:05:46.234Z,99875.25
2022-08-19T06:08:54.695Z,99878.94
2022-08-19T06:12:00.753Z,99867.19
2022-08-19T06:15:07.377Z,99866.41
2022-08-19T06:18:10.031Z,99863.72
2022-08-19T06:21:12.411Z,99877.66
2022-08-19T06:24:18.630Z,99872.72
2022-08-19T06:27:22.237Z,99869.00
2022-08-19T06:30:25.244Z,99863.06
2022-08-19T06:33:28.286Z,99858.38
2022-08-19T06:36:38.244Z,99854.22
2022-08-19T06:39:43.399Z,99839.53
2022-08-19T06:42:54.715Z,99854.34
2022-08-19T06:45:57.945Z,99855.78
2022-08-19T06:49:01.901Z,99852.25
2022-08-19T06:52:06.333Z,99843.75
2022-08-19T06:55:09.405Z,99845.62
2022-08-19T06:58:11.862Z,99848.34
2022-08-19T07:01:14.734Z,99849.34
2022-08-19T07:04:18.076Z,99856.19
2022-08-19T07:07:22.063Z,99864.78
2022-08-19T07:10:25.716Z,99873.13
2022-08-19T07:13:28.596Z,99879.72
2022-08-19T07:16:31.126Z,99888.69
2022-08-19T07:19:35.640Z,99884.03
2022-08-19T07:22:40.113Z,99884.00
2022-08-19T07:25:44.295Z,99888.06
2022-08-19T07:28:52.872Z,99890.09
2022-08-19T07:31:57.454Z,99896.25
2022-08-19T07:35:04.294Z,99881.63
2022-08-19T07:38:07.150Z,99881.25
2022-08-19T07:41:14.110Z,99876.34
2022-08-19T07:44:17.874Z,99879.87
2022-08-19T07:47:49.207Z,99874.13
2022-08-19T07:50:43.337Z,99872.16
2022-08-19T07:53:47.472Z,99869.13
2022-08-19T07:56:52.511Z,99877.44
2022-08-19T07:59:55.391Z,99871.94
2022-08-19T08:02:58.160Z,99877.53
2022-08-19T08:06:19.503Z,99875.47
2022-08-19T08:09:43.164Z,99876.81
2022-08-19T08:13:08.953Z,99868.94
2022-08-19T08:16:14.159Z,99871.25
2022-08-19T08:19:25.290Z,99878.25
2022-08-19T08:22:47.059Z,99876.59
2022-08-19T08:25:50.474Z,99875.97
2022-08-19T08:28:54.272Z,99878.63
2022-08-19T08:31:59.696Z,99872.88
2022-08-19T08:35:02.899Z,99877.34
2022-08-19T08:38:05.847Z,99873.84
2022-08-19T08:41:47.555Z,99873.66
2022-08-19T08:45:04.056Z,99869.31
2022-08-19T08:48:25.195Z,99868.47
2022-08-19T08:51:36.117Z,99854.63
2022-08-19T08:54:55.019Z,99835.75
2022-08-19T08:58:10.788Z,99836.31
2022-08-19T09:01:13.436Z,99847.44
2022-08-19T09:04:17.037Z,99853.47
2022-08-19T09:07:41.512Z,99857.13
2022-08-19T09:10:55.361Z,99844.47
2022-08-19T09:14:34.999Z,99843.28
2022-08-19T09:17:36.522Z,99843.88
2022-08-19T09:20:42.581Z,99849.31
2022-08-19T09:23:45.822Z,99840.81
2022-08-19T09:26:53.262Z,99836.75
2022-08-19T09:29:55.931Z,99833.28
2022-08-19T09:32:58.142Z,99839.81
2022-08-19T09:36:10.073Z,99829.75
2022-08-19T09:39:16.163Z,99815.91
2022-08-19T09:42:30.110Z,99818.63
2022-08-19T09:45:37.595Z,99817.34
2022-08-19T09:48:41.504Z,99813.50
2022-08-19T09:51:46.834Z,99810.06
2022-08-19T09:54:54.184Z,99807.81
2022-08-19T09:57:56.609Z,99804.59
2022-08-19T10:01:00.979Z,99792.88
2022-08-19T10:04:14.927Z,99787.53
2022-08-19T10:07:23.010Z,99790.00
2022-08-19T10:10:38.813Z,99793.28
2022-08-19T10:13:46.162Z,99795.53
2022-08-19T10:16:48.822Z,99789.63
2022-08-19T10:19:55.514Z,99792.31
2022-08-19T10:23:00.410Z,99782.34
2022-08-19T10:26:07.086Z,99785.13
2022-08-19T10:29:11.432Z,99781.09
2022-08-19T10:32:14.371Z,99770.16
2022-08-19T10:35:22.067Z,99784.03
2022-08-19T10:38:31.844Z,99775.06
2022-08-19T10:41:38.954Z,99780.16
2022-08-19T10:44:42.293Z,99778.25
2022-08-19T10:47:45.083Z,99773.78
2022-08-19T10:51:05.842Z,99780.66
2022-08-19T10:54:12.532Z,99773.63
2022-08-19T10:57:16.508Z,99775.06
2022-08-19T11:00:21.558Z,99780.09
2022-08-19T11:03:25.696Z,99778.66
2022-08-19T11:06:28.975Z,99777.03
2022-08-19T11:09:34.411Z,99772.00
2022-08-19T11:12:40.154Z,99764.59
2022-08-19T11:15:42.837Z,99767.63
2022-08-19T11:18:50.560Z,99772.03
2022-08-19T11:21:55.348Z,99766.28
2022-08-19T11:25:00.361Z,99766.38
2022-08-19T11:28:02.902Z,99771.06
2022-08-19T11:31:10.226Z,99775.59
2022-08-19T11:34:17.370Z,99766.03
2022-08-19T11:37:20.335Z,99758.66
2022-08-19T11:40:24.189Z,99762.72
2022-08-19T11:43:27.792Z,99773.25
2022-08-19T11:46:30.476Z,99758.56
2022-08-19T11:49:33.263Z,99753.69
2022-08-19T11:52:35.728Z,99738.91
2022-08-19T11:55:44.321Z,99747.31
2022-08-19T11:58:47.698Z,99751.75
2022-08-19T12:01:50.345Z,99745.56
2022-08-19T12:04:52.967Z,99739.38
2022-08-19T12:07:55.743Z,99729.97
2022-08-19T12:10:58.670Z,99733.56
2022-08-19T12:14:01.349Z,99736.28
2022-08-19T12:17:07.302Z,99738.75
2022-08-19T12:20:12.420Z,99738.38
2022-08-19T12:23:15.199Z,99736.22
2022-08-19T12:26:18.815Z,99743.91
2022-08-19T12:29:23.828Z,99736.91
2022-08-19T12:32:27.528Z,99745.56
2022-08-19T12:35:31.766Z,99751.31
2022-08-19T12:38:38.130Z,99742.72
2022-08-19T12:41:43.318Z,99730.31
2022-08-19T12:44:56.987Z,99721.81
2022-08-19T12:48:00.102Z,99717.47
2022-08-19T12:51:11.365Z,99711.69
2022-08-19T12:54:14.122Z,99707.06
2022-08-19T12:57:16.667Z,99703.87
2022-08-19T13:00:22.253Z,99699.78
2022-08-19T13:03:29.979Z,99688.34
2022-08-19T13:06:32.597Z,99702.88
2022-08-19T13:09:35.275Z,99700.16
2022-08-19T13:12:38.383Z,99700.78
2022-08-19T13:15:42.989Z,99688.19
2022-08-19T13:18:53.674Z,99691.22
2022-08-19T13:22:00.236Z,99696.13
2022-08-19T13:25:06.790Z,99692.75
2022-08-19T13:28:09.347Z,99685.12
2022-08-19T13:31:36.826Z,99679.38
2022-08-19T13:34:40.386Z,99684.53
2022-08-19T13:37:43.178Z,99685.97
2022-08-19T13:40:46.001Z,99684.44
2022-08-19T13:43:49.815Z,99679.84
2022-08-19T13:46:54.791Z,99677.31
2022-08-19T13:49:57.614Z,99679.75
2022-08-19T13:53:01.297Z,99664.25
2022-08-19T13:56:06.714Z,99664.88
2022-08-19T13:59:09.226Z,99681.72
2022-08-19T14:02:12.006Z,99671.03
2022-08-19T14:05:17.633Z,99684.53
2022-08-19T14:08:20.211Z,99691.53
2022-08-19T14:11:23.897Z,99676.66
2022-08-19T14:14:26.268Z,99676.13
2022-08-19T14:17:29.759Z,99670.00
2022-08-19T14:20:35.952Z,99668.69
2022-08-19T14:23:38.696Z,99673.63
2022-08-19T14:26:40.952Z,99668.81
2022-08-19T14:29:43.557Z,99665.50
2022-08-19T14:32:46.567Z,99673.87
2022-08-19T14:35:49.346Z,99663.03
2022-08-19T14:38:51.853Z,99653.22
2022-08-19T14:41:54.608Z,99665.16
2022-08-19T14:45:01.127Z,99674.63
2022-08-19T14:48:05.665Z,99660.03
2022-08-19T14:51:08.820Z,99662.75
2022-08-19T14:54:11.484Z,99671.75
